Terminal Aerodrome Forecast
Issued by NWS

Home | Current Version | Previous Version | Text Only | Print | Product List | Glossary On
Versions: 1 2 3 4 5 6 7 8 9 10 11 12
000
FTUS42 KTBW 030525
TAFRSW
TAF
KRSW 030525Z 0306/0406 10004KT P6SM BKN250
     FM030900 10004KT P6SM SCT250
     FM031500 14005KT P6SM SCT030 SCT250
     FM031900 14007KT P6SM VCTS SCT040CB BKN250
     FM040100 13004KT P6SM SCT050 BKN250=

USA.gov is the U.S. government's official web portal to all federal, state and local government web resources and services.